Time;durP1;ratioP1;P1;durP2;ratioP2;P2;SDS_P1;SDS_P2;PMS_P1;PMS_P2;Temp;Humidity;BMP_temperature;BMP_pressure;BME280_temperature;BME280_humidity;BME280_pressure;Samples;Min_cycle;Max_cycle;Signal;HPM_P1;HPM_P2
2021/04/11 00:00:23;;;;;;;17.08;15.18;;;6.50;99.90;;;;;;4797903;29;20928;-77
2021/04/11 00:02:49;;;;;;;17.52;14.98;;;6.50;99.90;;;;;;4816749;29;20414;-77
2021/04/11 00:05:16;;;;;;;17.58;15.75;;;6.50;99.90;;;;;;4786625;29;20420;-80
2021/04/11 00:07:41;;;;;;;19.02;16.73;;;6.40;99.90;;;;;;4818699;29;20413;-78
2021/04/11 00:10:08;;;;;;;19.87;16.20;;;6.40;99.90;;;;;;4790946;29;20425;-78
2021/04/11 00:12:34;;;;;;;17.45;15.52;;;6.40;99.90;;;;;;4819277;29;20518;-82
2021/04/11 00:14:59;;;;;;;17.67;15.30;;;6.30;99.90;;;;;;4817666;29;20450;-76
2021/04/11 00:17:25;;;;;;;20.33;15.50;;;6.30;99.90;;;;;;4794290;29;20429;-77
2021/04/11 00:19:51;;;;;;;18.77;16.55;;;6.30;99.90;;;;;;4802121;29;20511;-77
2021/04/11 00:22:16;;;;;;;18.50;16.47;;;6.30;99.90;;;;;;4800034;29;20436;-76
2021/04/11 00:24:42;;;;;;;16.50;14.73;;;6.30;99.90;;;;;;4786845;29;20421;-78
2021/04/11 00:27:08;;;;;;;19.90;16.07;;;6.30;99.90;;;;;;4805694;29;20930;-77
2021/04/11 00:29:33;;;;;;;19.20;16.30;;;6.30;99.90;;;;;;4803200;29;20514;-77
2021/04/11 00:31:59;;;;;;;18.88;16.83;;;6.30;99.90;;;;;;4772089;29;22605;-79
2021/04/11 00:34:25;;;;;;;20.70;17.03;;;6.20;99.90;;;;;;4816263;29;20463;-77
2021/04/11 00:36:51;;;;;;;19.27;16.00;;;6.30;99.90;;;;;;4786454;29;20899;-76
2021/04/11 00:39:17;;;;;;;20.13;17.57;;;6.30;99.90;;;;;;4815599;29;20425;-78
2021/04/11 00:41:45;;;;;;;21.00;16.20;;;6.20;99.90;;;;;;4800608;29;21294;-77
2021/04/11 00:44:10;;;;;;;20.13;16.90;;;6.30;99.90;;;;;;4802107;29;20410;-78
2021/04/11 00:46:52;;;;;;;18.67;15.93;;;6.20;99.90;;;;;;4789530;29;20813;-76
2021/04/11 00:49:34;;;;;;;22.13;16.60;;;6.20;99.90;;;;;;4821289;29;20460;-77
2021/04/11 00:52:00;;;;;;;19.45;15.73;;;6.20;99.90;;;;;;4806029;29;20410;-78
2021/04/11 00:54:26;;;;;;;18.83;16.80;;;6.20;99.90;;;;;;4815579;29;20421;-78
2021/04/11 00:56:52;;;;;;;18.87;16.43;;;6.30;99.90;;;;;;4799540;29;20476;-77
2021/04/11 00:59:19;;;;;;;20.85;17.33;;;6.20;99.90;;;;;;4786346;29;20780;-76
2021/04/11 01:01:45;;;;;;;18.17;15.95;;;6.20;99.90;;;;;;4785223;29;20911;-77
2021/04/11 01:04:12;;;;;;;19.10;16.33;;;6.20;99.90;;;;;;4830961;29;20426;-77
2021/04/11 01:06:40;;;;;;;19.33;16.27;;;6.30;99.90;;;;;;4815666;29;20458;-77
2021/04/11 01:09:16;;;;;;;20.20;16.60;;;6.20;99.90;;;;;;4815694;29;20855;-81
2021/04/11 01:11:42;;;;;;;20.83;17.30;;;6.20;99.90;;;;;;4781318;29;20417;-77
2021/04/11 01:14:08;;;;;;;21.63;18.57;;;6.20;99.90;;;;;;4802666;29;20470;-78
2021/04/11 01:16:36;;;;;;;21.63;17.43;;;6.20;99.90;;;;;;4799994;29;20455;-77
2021/04/11 01:19:05;;;;;;;22.10;18.17;;;6.20;99.90;;;;;;4800740;29;20946;-79
2021/04/11 01:22:00;;;;;;;20.95;18.02;;;6.20;99.90;;;;;;4825690;29;20424;-76
2021/04/11 01:24:40;;;;;;;20.97;17.60;;;6.20;99.90;;;;;;4809217;29;20462;-77
2021/04/11 01:27:08;;;;;;;19.90;16.67;;;6.20;99.90;;;;;;4815239;29;20935;-81
2021/04/11 01:29:34;;;;;;;26.02;21.48;;;6.20;99.90;;;;;;4785706;29;20425;-76
2021/04/11 01:32:00;;;;;;;21.83;17.33;;;6.20;99.90;;;;;;4786037;29;20410;-76
2021/04/11 01:34:27;;;;;;;22.75;17.15;;;6.20;99.90;;;;;;4784839;29;20463;-78
2021/04/11 01:36:54;;;;;;;20.30;17.58;;;6.20;99.90;;;;;;4786485;29;20941;-77
2021/04/11 01:39:27;;;;;;;19.15;16.67;;;6.20;99.90;;;;;;4786187;29;20425;-77
2021/04/11 01:41:54;;;;;;;18.50;16.08;;;6.20;99.90;;;;;;4782703;29;20879;-78
2021/04/11 01:44:22;;;;;;;19.02;17.02;;;6.20;99.90;;;;;;4824436;29;20953;-78
2021/04/11 01:46:48;;;;;;;23.13;17.23;;;6.20;99.90;;;;;;4773380;29;20846;-77
2021/04/11 01:49:17;;;;;;;22.45;18.13;;;6.20;99.90;;;;;;4770470;29;20440;-77
2021/04/11 01:51:46;;;;;;;23.27;17.48;;;6.10;99.90;;;;;;4834531;29;20445;-78
2021/04/11 01:54:15;;;;;;;21.92;16.80;;;6.10;99.90;;;;;;4800639;29;20918;-77
2021/04/11 01:56:42;;;;;;;22.65;17.75;;;6.10;99.90;;;;;;4815454;29;20434;-77
2021/04/11 01:59:40;;;;;;;20.25;17.38;;;6.00;99.90;;;;;;4781770;29;20433;-78
2021/04/11 02:02:06;;;;;;;19.35;17.05;;;6.10;99.90;;;;;;4827744;29;20436;-77
2021/04/11 02:04:32;;;;;;;21.10;17.37;;;6.00;99.90;;;;;;4816159;29;20968;-78
2021/04/11 02:07:00;;;;;;;20.65;16.50;;;6.00;99.90;;;;;;4777990;29;20418;-77
2021/04/11 02:09:39;;;;;;;19.67;17.58;;;6.00;99.90;;;;;;4799623;29;21060;-79
2021/04/11 02:12:23;;;;;;;22.27;18.38;;;6.10;99.90;;;;;;4791504;29;20422;-78
2021/04/11 02:14:55;;;;;;;19.55;16.92;;;6.10;99.90;;;;;;4787219;29;20444;-78
2021/04/11 02:17:21;;;;;;;20.17;16.02;;;6.00;99.90;;;;;;4797341;29;20446;-77
2021/04/11 02:19:51;;;;;;;20.35;17.42;;;6.10;99.90;;;;;;4785414;29;20432;-80
2021/04/11 02:22:25;;;;;;;21.77;17.48;;;6.10;99.90;;;;;;4785334;29;20429;-77
2021/04/11 02:24:54;;;;;;;22.42;17.38;;;6.10;99.90;;;;;;4771179;29;20494;-80
2021/04/11 02:27:21;;;;;;;20.50;16.85;;;6.10;99.90;;;;;;4801653;29;20444;-78
2021/04/11 02:29:47;;;;;;;21.05;17.42;;;6.10;99.90;;;;;;4788806;29;20473;-80
2021/04/11 02:32:13;;;;;;;20.10;17.27;;;6.10;99.90;;;;;;4818491;29;20437;-80
2021/04/11 02:34:39;;;;;;;21.00;17.92;;;6.10;99.90;;;;;;4818050;29;21140;-77
2021/04/11 02:37:33;;;;;;;20.95;17.23;;;6.20;99.90;;;;;;4788918;29;20409;-80
2021/04/11 02:39:58;;;;;;;20.83;17.25;;;6.10;99.90;;;;;;4808140;29;20409;-78
2021/04/11 02:42:27;;;;;;;19.83;16.83;;;6.10;99.90;;;;;;4803919;29;20444;-77
2021/04/11 02:44:54;;;;;;;21.88;17.17;;;6.20;99.90;;;;;;4824121;29;20927;-81
2021/04/11 02:47:27;;;;;;;19.05;17.08;;;6.20;99.90;;;;;;4815558;29;20572;-77
2021/04/11 02:49:56;;;;;;;20.90;17.63;;;6.20;99.90;;;;;;4788427;29;20437;-77
2021/04/11 02:52:31;;;;;;;20.88;17.55;;;6.30;99.90;;;;;;4804959;29;20413;-77
2021/04/11 02:54:59;;;;;;;20.33;16.83;;;6.30;99.90;;;;;;4802815;29;20811;-78
2021/04/11 02:57:25;;;;;;;19.65;16.65;;;6.30;99.90;;;;;;4801637;29;20426;-77
2021/04/11 02:59:53;;;;;;;19.20;16.48;;;6.30;99.90;;;;;;4789210;29;20459;-80
2021/04/11 03:02:19;;;;;;;20.33;17.45;;;6.30;99.90;;;;;;4782036;29;20946;-79
2021/04/11 03:04:54;;;;;;;20.50;17.33;;;6.30;99.90;;;;;;4789407;29;20449;-78
2021/04/11 03:07:24;;;;;;;19.42;17.08;;;6.20;99.90;;;;;;4802557;29;20426;-77
2021/04/11 03:09:58;;;;;;;22.23;17.33;;;6.30;99.90;;;;;;4786987;29;20438;-77
2021/04/11 03:12:26;;;;;;;21.95;17.27;;;6.30;99.90;;;;;;4788791;29;20433;-78
2021/04/11 03:14:52;;;;;;;22.30;17.10;;;6.20;99.90;;;;;;4803598;29;20513;-78
2021/04/11 03:17:22;;;;;;;21.65;17.95;;;6.20;99.90;;;;;;4788045;29;20916;-77
2021/04/11 03:20:00;;;;;;;21.02;17.70;;;6.20;99.90;;;;;;4834576;29;20931;-78
2021/04/11 03:22:26;;;;;;;22.35;17.40;;;6.30;99.90;;;;;;4817720;29;20434;-78
2021/04/11 03:24:52;;;;;;;21.20;17.63;;;6.20;99.90;;;;;;4820575;29;20433;-77
2021/04/11 03:27:37;;;;;;;25.75;17.65;;;6.20;99.90;;;;;;4801854;29;20434;-77
2021/04/11 03:30:25;;;;;;;23.48;19.52;;;6.30;99.90;;;;;;4823986;29;20469;-78
2021/04/11 03:32:52;;;;;;;21.65;18.52;;;6.30;99.90;;;;;;4804521;29;20436;-78
2021/04/11 03:35:25;;;;;;;21.90;18.52;;;6.20;99.90;;;;;;4820051;29;20505;-79
2021/04/11 03:37:53;;;;;;;23.92;19.20;;;6.20;99.90;;;;;;4802021;29;20433;-77
2021/04/11 03:40:22;;;;;;;20.83;18.00;;;6.20;99.90;;;;;;4818528;29;20488;-79
2021/04/11 03:42:50;;;;;;;21.15;17.70;;;6.20;99.90;;;;;;4788881;29;20893;-78
2021/04/11 03:45:17;;;;;;;23.02;18.38;;;6.20;99.90;;;;;;4787682;29;20512;-77
2021/04/11 03:47:50;;;;;;;21.13;17.93;;;6.20;99.90;;;;;;4788937;29;20429;-77
2021/04/11 03:50:20;;;;;;;21.77;17.92;;;6.20;99.90;;;;;;4799083;29;20421;-77
2021/04/11 03:53:02;;;;;;;18.95;16.85;;;6.20;99.90;;;;;;4819143;29;20428;-77
2021/04/11 03:55:33;;;;;;;18.88;16.70;;;6.20;99.90;;;;;;4775730;29;20492;-78
2021/04/11 03:58:00;;;;;;;21.80;15.93;;;6.30;99.90;;;;;;4793301;29;20417;-78
2021/04/11 04:00:46;;;;;;;21.58;17.33;;;6.30;99.90;;;;;;4805800;29;20434;-78
2021/04/11 04:03:15;;;;;;;24.63;16.85;;;6.30;99.90;;;;;;4789782;29;20440;-78
2021/04/11 04:05:42;;;;;;;21.77;16.80;;;6.30;99.90;;;;;;4789211;29;20429;-82
2021/04/11 04:08:11;;;;;;;20.20;16.77;;;6.30;99.90;;;;;;4803664;29;20426;-80
2021/04/11 04:11:03;;;;;;;23.17;16.92;;;6.30;99.90;;;;;;4806511;29;20421;-78
2021/04/11 04:13:41;;;;;;;22.52;18.05;;;6.20;99.90;;;;;;4833587;29;21103;-78
2021/04/11 04:16:15;;;;;;;19.52;15.98;;;6.20;99.90;;;;;;4802722;29;20436;-83
2021/04/11 04:19:01;;;;;;;19.27;16.88;;;6.20;99.90;;;;;;4803476;29;20444;-77
2021/04/11 04:21:52;;;;;;;21.37;16.47;;;6.20;99.90;;;;;;4803407;29;20948;-78
2021/04/11 04:24:42;;;;;;;18.85;16.35;;;6.20;99.90;;;;;;4784285;29;20901;-77
2021/04/11 04:27:22;;;;;;;22.30;16.77;;;6.20;99.90;;;;;;4787854;29;20411;-78
2021/04/11 04:30:02;;;;;;;19.97;16.10;;;6.20;99.90;;;;;;4831999;29;20424;-77
2021/04/11 04:32:40;;;;;;;23.80;17.47;;;6.20;99.90;;;;;;4817982;29;20409;-76
2021/04/11 04:35:17;;;;;;;20.93;16.43;;;6.20;99.90;;;;;;4803546;29;20429;-78
2021/04/11 04:37:46;;;;;;;18.83;16.55;;;6.20;99.90;;;;;;4832684;29;20453;-77
2021/04/11 04:40:41;;;;;;;20.33;16.75;;;6.10;99.90;;;;;;4803512;29;20501;-78
2021/04/11 04:43:25;;;;;;;18.80;16.15;;;6.20;99.90;;;;;;4816347;29;20478;-79
2021/04/11 04:46:00;;;;;;;18.63;15.85;;;6.10;99.90;;;;;;4775257;29;20938;-79
2021/04/11 04:48:32;;;;;;;22.00;16.58;;;6.10;99.90;;;;;;4803438;29;20421;-80
2021/04/11 04:51:30;;;;;;;20.42;15.93;;;6.10;99.90;;;;;;4773405;29;20860;-77
2021/04/11 04:54:02;;;;;;;23.05;15.95;;;6.10;99.90;;;;;;4831324;29;20869;-78
2021/04/11 04:56:39;;;;;;;23.20;16.60;;;6.10;99.90;;;;;;4806740;29;20429;-77
2021/04/11 04:59:14;;;;;;;21.80;16.10;;;6.20;99.90;;;;;;4806066;29;20434;-78
2021/04/11 05:01:50;;;;;;;20.38;16.17;;;6.20;99.90;;;;;;4821944;29;20422;-77
2021/04/11 05:04:28;;;;;;;20.13;15.55;;;6.20;99.90;;;;;;4789055;29;20444;-81
2021/04/11 05:07:06;;;;;;;18.40;15.70;;;6.20;99.90;;;;;;4826412;29;20424;-77
2021/04/11 05:09:49;;;;;;;23.08;15.48;;;6.30;99.90;;;;;;4836770;29;20424;-77
2021/04/11 05:13:24;;;;;;;18.25;14.70;;;6.30;99.90;;;;;;4803211;29;20554;-77
2021/04/11 05:16:18;;;;;;;18.50;14.65;;;6.30;99.90;;;;;;4810009;29;20436;-79
2021/04/11 05:18:51;;;;;;;20.05;15.10;;;6.40;99.90;;;;;;4802106;29;20417;-78
2021/04/11 05:21:32;;;;;;;18.73;15.00;;;6.50;99.90;;;;;;4802213;29;20490;-80
2021/04/11 05:24:10;;;;;;;18.90;14.50;;;6.50;99.90;;;;;;4816689;29;20470;-78
2021/04/11 05:26:41;;;;;;;18.50;15.10;;;6.50;99.90;;;;;;4806904;29;20417;-78
2021/04/11 05:29:24;;;;;;;19.05;14.90;;;6.60;99.90;;;;;;4809552;29;20452;-85
2021/04/11 05:31:51;;;;;;;18.83;15.25;;;6.60;99.90;;;;;;4786647;29;20840;-77
2021/04/11 05:34:17;;;;;;;18.25;15.18;;;6.60;99.90;;;;;;4805177;29;20987;-77
2021/04/11 05:36:58;;;;;;;18.85;14.57;;;6.60;99.90;;;;;;4786727;29;20460;-78
2021/04/11 05:39:57;;;;;;;18.13;15.00;;;6.60;99.90;;;;;;4820861;29;20442;-79
2021/04/11 05:42:46;;;;;;;18.00;14.40;;;6.70;99.90;;;;;;4791504;29;20536;-78
2021/04/11 05:45:22;;;;;;;16.70;13.98;;;6.70;99.90;;;;;;4814713;29;20449;-78
2021/04/11 05:48:18;;;;;;;19.40;14.18;;;6.70;99.90;;;;;;4823496;29;20946;-77
2021/04/11 05:51:02;;;;;;;19.13;14.93;;;6.80;99.90;;;;;;4790880;29;20417;-77
2021/04/11 05:53:53;;;;;;;18.92;14.50;;;6.80;99.90;;;;;;4815229;29;20437;-78
2021/04/11 05:56:26;;;;;;;17.83;13.32;;;6.80;99.90;;;;;;4800344;29;20489;-77
2021/04/11 05:59:01;;;;;;;16.13;13.15;;;6.80;99.90;;;;;;4800003;29;20915;-78
2021/04/11 06:01:30;;;;;;;16.98;13.98;;;6.80;99.90;;;;;;4802819;29;20459;-79
2021/04/11 06:04:01;;;;;;;15.85;13.98;;;6.80;99.90;;;;;;4808360;29;21133;-77
2021/04/11 06:06:40;;;;;;;17.58;13.80;;;6.80;99.90;;;;;;4806237;29;20421;-78
2021/04/11 06:09:18;;;;;;;20.27;14.48;;;6.80;99.90;;;;;;4807692;29;20446;-78
2021/04/11 06:12:04;;;;;;;16.67;13.60;;;6.80;99.90;;;;;;4792553;29;20505;-77
2021/04/11 06:14:50;;;;;;;14.45;12.77;;;6.90;99.90;;;;;;4791291;29;20417;-77
2021/04/11 06:17:16;;;;;;;17.65;13.38;;;6.80;99.90;;;;;;4810020;29;20441;-81
2021/04/11 06:19:43;;;;;;;18.88;13.95;;;6.80;99.90;;;;;;4819291;29;20444;-83
2021/04/11 06:22:14;;;;;;;16.75;12.88;;;6.90;99.90;;;;;;4818634;29;20409;-86
2021/04/11 06:24:48;;;;;;;16.17;12.82;;;6.90;99.90;;;;;;4817212;29;20416;-83
2021/04/11 06:27:36;;;;;;;16.05;13.18;;;7.00;99.90;;;;;;4829808;29;20441;-80
2021/04/11 06:30:25;;;;;;;18.15;13.20;;;7.10;99.90;;;;;;4824582;29;20558;-76
2021/04/11 06:32:53;;;;;;;16.00;12.77;;;7.10;99.90;;;;;;4801243;29;20484;-80
2021/04/11 06:35:28;;;;;;;15.95;12.68;;;7.20;99.90;;;;;;4808801;29;20423;-80
2021/04/11 06:37:56;;;;;;;18.23;12.70;;;7.30;99.90;;;;;;4792563;29;20500;-77
2021/04/11 06:40:28;;;;;;;14.57;12.27;;;7.30;99.90;;;;;;4794467;29;21071;-80
2021/04/11 06:43:22;;;;;;;19.42;13.25;;;7.40;99.90;;;;;;4834073;29;20969;-78
2021/04/11 06:46:11;;;;;;;13.52;12.15;;;7.50;99.90;;;;;;4816801;29;20424;-77
2021/04/11 06:49:07;;;;;;;16.40;12.68;;;7.70;99.90;;;;;;4820660;29;20425;-77
2021/04/11 06:51:43;;;;;;;13.52;12.10;;;7.80;99.90;;;;;;4817936;29;20436;-81
2021/04/11 06:54:09;;;;;;;16.33;12.73;;;8.00;99.90;;;;;;4836893;29;20445;-76
2021/04/11 06:57:06;;;;;;;16.25;11.48;;;8.20;99.90;;;;;;4810625;29;20460;-78
2021/04/11 06:59:39;;;;;;;16.98;11.98;;;8.30;99.90;;;;;;4820376;29;20421;-78
2021/04/11 07:02:14;;;;;;;17.50;11.80;;;8.40;99.90;;;;;;4791882;29;20425;-77
2021/04/11 07:05:13;;;;;;;13.38;11.32;;;8.50;99.90;;;;;;4821798;29;20955;-78
2021/04/11 07:08:22;;;;;;;15.43;12.27;;;8.60;99.90;;;;;;4821248;29;21221;-77
2021/04/11 07:11:19;;;;;;;14.75;11.80;;;8.60;99.90;;;;;;4821211;29;20510;-79
2021/04/11 07:14:04;;;;;;;15.15;10.82;;;8.70;99.90;;;;;;4819234;29;21144;-78
2021/04/11 07:16:42;;;;;;;12.57;11.05;;;8.80;99.90;;;;;;4815498;29;20434;-78
2021/04/11 07:19:14;;;;;;;12.00;10.33;;;9.00;99.90;;;;;;4807838;29;20447;-79
2021/04/11 07:21:54;;;;;;;13.40;10.75;;;9.20;99.90;;;;;;4814513;29;20523;-79
2021/04/11 07:24:28;;;;;;;12.50;9.45;;;9.40;99.90;;;;;;4787798;29;20417;-78
2021/04/11 07:27:00;;;;;;;13.35;10.27;;;9.60;99.90;;;;;;4805054;29;20417;-80
2021/04/11 07:29:28;;;;;;;11.77;9.52;;;9.80;99.90;;;;;;4806341;29;20426;-79
2021/04/11 07:31:58;;;;;;;11.80;9.33;;;10.10;99.90;;;;;;4835583;29;20418;-78
2021/04/11 07:34:41;;;;;;;10.52;9.00;;;10.30;99.90;;;;;;4824178;29;20500;-79
2021/04/11 07:37:28;;;;;;;11.10;8.63;;;10.60;99.90;;;;;;4820824;29;20440;-80
2021/04/11 07:39:57;;;;;;;10.02;7.85;;;10.80;99.90;;;;;;4823660;29;20429;-86
2021/04/11 07:42:55;;;;;;;10.43;7.93;;;11.00;99.90;;;;;;4846929;29;20431;-83
2021/04/11 07:46:03;;;;;;;7.97;7.03;;;11.20;99.90;;;;;;4806798;29;20420;-80
2021/04/11 07:49:00;;;;;;;9.30;7.63;;;11.30;99.90;;;;;;4739606;30;20443;-80
2021/04/11 07:51:53;;;;;;;7.25;6.45;;;11.50;99.90;;;;;;4737705;30;20442;-82
2021/04/11 07:54:34;;;;;;;9.98;7.65;;;11.70;99.90;;;;;;4828339;29;20818;-76
2021/04/11 07:57:25;;;;;;;9.90;6.35;;;11.90;99.90;;;;;;4808642;29;20422;-77
2021/04/11 08:00:17;;;;;;;10.70;7.53;;;12.30;99.90;;;;;;4810820;29;20942;-80
2021/04/11 08:02:58;;;;;;;8.80;5.75;;;12.40;99.90;;;;;;4823440;29;20426;-77
2021/04/11 08:05:30;;;;;;;9.60;6.27;;;12.60;99.90;;;;;;4812640;29;20447;-79
2021/04/11 08:08:20;;;;;;;6.40;4.43;;;12.50;99.90;;;;;;4840964;29;20412;-81
2021/04/11 08:11:27;;;;;;;7.95;5.45;;;12.50;99.90;;;;;;4806572;29;20422;-77
2021/04/11 08:14:00;;;;;;;7.20;5.05;;;12.50;99.90;;;;;;4830984;29;20414;-78
2021/04/11 08:16:50;;;;;;;6.60;5.13;;;12.60;99.90;;;;;;4832828;29;20440;-80
2021/04/11 08:19:59;;;;;;;6.53;4.90;;;12.80;99.90;;;;;;4804691;29;20442;-79
2021/04/11 08:22:58;;;;;;;7.38;4.80;;;13.10;99.90;;;;;;4793539;29;20923;-78
2021/04/11 08:25:37;;;;;;;8.40;5.22;;;13.30;99.90;;;;;;4815605;29;20432;-79
2021/04/11 08:28:39;;;;;;;4.27;3.87;;;13.50;99.90;;;;;;4803100;29;20410;-78
2021/04/11 08:31:28;;;;;;;4.93;3.95;;;13.60;99.90;;;;;;4800443;29;20466;-79
2021/04/11 08:34:24;;;;;;;5.20;4.13;;;13.80;99.90;;;;;;4818515;29;20475;-77
2021/04/11 08:37:29;;;;;;;6.93;4.32;;;14.00;99.90;;;;;;4806140;29;20473;-78
2021/04/11 08:40:09;;;;;;;4.10;3.70;;;14.10;99.90;;;;;;4811002;29;20428;-79
2021/04/11 08:42:41;;;;;;;5.38;3.97;;;14.30;99.90;;;;;;4809536;29;20452;-77
2021/04/11 08:45:13;;;;;;;4.55;3.40;;;14.50;99.90;;;;;;4833050;29;20799;-77
2021/04/11 08:48:01;;;;;;;3.17;2.92;;;14.60;99.90;;;;;;4800896;29;20446;-78
2021/04/11 08:50:29;;;;;;;3.80;2.47;;;14.90;99.90;;;;;;4811548;29;20414;-78
2021/04/11 08:53:09;;;;;;;3.60;1.80;;;15.00;99.90;;;;;;4823304;29;20424;-78
2021/04/11 08:56:16;;;;;;;2.03;1.83;;;15.20;99.90;;;;;;4833179;29;20457;-78
2021/04/11 08:59:25;;;;;;;1.60;1.50;;;15.30;99.90;;;;;;4786187;29;20417;-78
2021/04/11 09:02:05;;;;;;;2.20;1.80;;;15.40;99.90;;;;;;4785772;29;20983;-78
2021/04/11 09:05:02;;;;;;;1.60;1.40;;;15.60;99.90;;;;;;4765903;30;20481;-78
2021/04/11 09:08:03;;;;;;;2.07;1.47;;;15.70;99.90;;;;;;4769354;29;20446;-78
2021/04/11 09:10:53;;;;;;;1.50;1.40;;;15.80;99.90;;;;;;4816755;29;20989;-79
2021/04/11 09:13:56;;;;;;;1.67;1.45;;;15.90;99.90;;;;;;4832986;29;20427;-79
2021/04/11 09:16:22;;;;;;;2.05;1.73;;;16.00;99.90;;;;;;4817517;29;20429;-80
2021/04/11 09:19:06;;;;;;;1.90;1.60;;;16.10;99.90;;;;;;4818079;29;20919;-78
2021/04/11 09:21:37;;;;;;;2.58;1.55;;;16.30;99.90;;;;;;4818772;29;20470;-80
2021/04/11 09:24:07;;;;;;;2.10;1.85;;;16.40;99.90;;;;;;4818558;29;20440;-79
2021/04/11 09:26:50;;;;;;;1.50;1.40;;;16.60;99.90;;;;;;4828080;29;20896;-79
2021/04/11 09:29:35;;;;;;;1.50;1.40;;;16.70;99.90;;;;;;4832415;29;20433;-79
2021/04/11 09:32:38;;;;;;;3.42;2.08;;;16.80;99.90;;;;;;4828406;29;20455;-79
2021/04/11 09:35:35;;;;;;;2.00;1.58;;;16.90;99.90;;;;;;4816851;29;20437;-79
2021/04/11 09:38:09;;;;;;;1.60;1.50;;;17.10;99.90;;;;;;4792784;29;20518;-78
2021/04/11 09:40:52;;;;;;;1.50;1.40;;;17.30;99.90;;;;;;4772516;29;20433;-76
2021/04/11 09:43:46;;;;;;;2.17;1.47;;;17.50;99.90;;;;;;4753686;30;20421;-78
2021/04/11 09:46:45;;;;;;;1.43;1.33;;;17.70;99.90;;;;;;4780685;29;20420;-78
2021/04/11 09:49:35;;;;;;;1.30;1.20;;;18.00;97.40;;;;;;4765104;29;20413;-78
2021/04/11 09:52:19;;;;;;;2.15;1.90;;;18.20;97.10;;;;;;4783787;29;20508;-78
2021/04/11 09:54:46;;;;;;;2.30;2.10;;;18.50;98.50;;;;;;4768532;29;20438;-78
2021/04/11 09:57:37;;;;;;;1.77;1.60;;;18.70;94.70;;;;;;4763072;30;20428;-78
2021/04/11 10:00:21;;;;;;;1.52;1.42;;;19.00;98.90;;;;;;4770648;29;20440;-79
2021/04/11 10:03:14;;;;;;;3.03;1.52;;;19.40;92.60;;;;;;4757419;30;20878;-78
2021/04/11 10:06:17;;;;;;;1.33;1.23;;;19.60;92.50;;;;;;4784946;29;20409;-78
2021/04/11 10:09:25;;;;;;;1.50;1.23;;;19.80;89.70;;;;;;4789181;29;20413;-78
2021/04/11 10:12:14;;;;;;;1.60;1.30;;;20.00;86.70;;;;;;4680683;30;20946;-78
2021/04/11 10:14:49;;;;;;;1.60;1.40;;;20.30;85.00;;;;;;4748730;30;20424;-77
2021/04/11 10:17:57;;;;;;;1.30;1.20;;;20.30;81.40;;;;;;4749409;30;20432;-78
2021/04/11 10:20:31;;;;;;;4.78;3.85;;;20.50;82.10;;;;;;4705234;30;21102;-78
2021/04/11 10:23:22;;;;;;;2.13;1.90;;;20.70;79.60;;;;;;4738637;30;20409;-78
2021/04/11 10:25:53;;;;;;;1.80;1.70;;;20.80;78.10;;;;;;4749962;30;20426;-78
2021/04/11 10:28:25;;;;;;;1.55;1.45;;;20.90;73.10;;;;;;4750114;30;20472;-80
2021/04/11 10:31:19;;;;;;;3.63;1.60;;;20.80;71.40;;;;;;4744045;30;20417;-78
2021/04/11 10:34:04;;;;;;;1.50;1.40;;;20.90;74.30;;;;;;4755008;30;20484;-78
2021/04/11 10:36:45;;;;;;;1.58;1.48;;;21.40;75.60;;;;;;4772948;30;20425;-79
2021/04/11 10:39:32;;;;;;;1.77;1.60;;;21.60;69.60;;;;;;4754063;30;20421;-77
2021/04/11 10:42:19;;;;;;;2.47;1.77;;;21.60;68.90;;;;;;4748442;30;20500;-79
2021/04/11 10:45:20;;;;;;;1.83;1.67;;;21.80;73.70;;;;;;4770339;30;20421;-79
2021/04/11 10:48:08;;;;;;;2.30;1.55;;;22.00;65.30;;;;;;4750238;30;20501;-79
2021/04/11 10:51:15;;;;;;;2.17;1.60;;;22.00;67.40;;;;;;4752125;30;20478;-80
2021/04/11 10:54:12;;;;;;;2.35;1.60;;;22.40;66.50;;;;;;4739198;30;20421;-79
2021/04/11 10:56:52;;;;;;;1.90;1.70;;;22.60;64.70;;;;;;4782398;29;20440;-78
2021/04/11 10:59:40;;;;;;;1.60;1.50;;;23.00;66.10;;;;;;4765164;30;20425;-78
2021/04/11 11:02:15;;;;;;;2.13;1.70;;;23.00;60.20;;;;;;4763064;29;21059;-78
2021/04/11 11:05:34;;;;;;;2.05;1.70;;;23.20;60.30;;;;;;4769069;30;20431;-78
2021/04/11 11:08:14;;;;;;;1.63;1.53;;;23.40;62.60;;;;;;4779436;30;20426;-79
2021/04/11 11:11:25;;;;;;;3.25;2.08;;;23.50;60.20;;;;;;4770391;29;20912;-79
2021/04/11 11:14:03;;;;;;;1.70;1.58;;;23.70;63.00;;;;;;4749442;30;20497;-77
2021/04/11 11:16:51;;;;;;;1.63;1.50;;;24.10;61.10;;;;;;4780572;30;20424;-79
2021/04/11 11:19:54;;;;;;;4.75;1.73;;;24.20;58.20;;;;;;4764423;30;20503;-80
2021/04/11 11:25:44;;;;;;;2.22;1.80;;;24.70;55.10;;;;;;5528662;24;20443;-80
2021/04/11 11:28:16;;;;;;;1.52;1.42;;;25.00;58.40;;;;;;4733786;30;20964;-78
2021/04/11 11:31:07;;;;;;;1.98;1.70;;;24.90;56.20;;;;;;4731151;30;20424;-77
2021/04/11 11:33:51;;;;;;;2.63;1.83;;;24.90;54.80;;;;;;4730767;30;20471;-78
2021/04/11 11:36:43;;;;;;;1.85;1.52;;;25.00;54.30;;;;;;4740140;30;20503;-75
2021/04/11 11:39:33;;;;;;;1.70;1.60;;;25.10;54.00;;;;;;4714062;30;20951;-78
2021/04/11 11:42:14;;;;;;;1.50;1.40;;;25.20;53.80;;;;;;4718734;30;20428;-80
2021/04/11 11:45:07;;;;;;;2.13;1.40;;;25.30;52.70;;;;;;4705399;30;20416;-80
2021/04/11 11:48:00;;;;;;;1.60;1.50;;;25.10;54.10;;;;;;4704237;30;20611;-80
2021/04/11 11:50:34;;;;;;;1.35;1.25;;;25.30;53.80;;;;;;4738253;30;20412;-79
2021/04/11 11:53:28;;;;;;;1.70;1.30;;;25.50;52.50;;;;;;4725473;30;20413;-80
2021/04/11 11:56:12;;;;;;;2.60;1.60;;;25.80;51.70;;;;;;4719567;30;20444;-77
2021/04/11 11:59:12;;;;;;;2.50;1.40;;;26.10;53.50;;;;;;4726300;30;20523;-76
2021/04/11 12:01:53;;;;;;;1.40;1.30;;;26.20;50.50;;;;;;4687483;30;20431;-77
2021/04/11 12:04:31;;;;;;;1.63;1.40;;;26.50;52.90;;;;;;4740477;30;20484;-78
2021/04/11 12:06:57;;;;;;;2.17;1.53;;;26.80;49.10;;;;;;4730114;30;20434;-78
2021/04/11 12:09:31;;;;;;;1.58;1.48;;;26.60;49.70;;;;;;4732305;30;21308;-80
2021/04/11 12:12:12;;;;;;;1.60;1.50;;;26.10;48.20;;;;;;4679762;30;20429;-81
2021/04/11 12:14:55;;;;;;;2.40;1.40;;;26.30;49.30;;;;;;4746581;30;20469;-78
2021/04/11 12:17:28;;;;;;;1.73;1.60;;;26.10;47.00;;;;;;4725053;29;20416;-76
2021/04/11 12:20:07;;;;;;;1.50;1.40;;;26.10;46.70;;;;;;4721022;30;21055;-78
2021/04/11 12:22:39;;;;;;;1.60;1.50;;;26.20;49.00;;;;;;4750382;30;20459;-78
2021/04/11 12:25:13;;;;;;;1.80;1.50;;;27.00;50.60;;;;;;4734969;30;20417;-79
2021/04/11 12:27:39;;;;;;;1.45;1.35;;;27.30;48.90;;;;;;4715208;30;20421;-77
2021/04/11 12:30:14;;;;;;;1.95;1.40;;;27.50;48.40;;;;;;4710071;30;20425;-79
2021/04/11 12:33:02;;;;;;;2.35;1.50;;;27.60;49.50;;;;;;4700843;30;20472;-78
2021/04/11 12:35:29;;;;;;;1.95;1.80;;;28.00;47.90;;;;;;4688789;30;20438;-78
2021/04/11 12:38:07;;;;;;;1.57;1.47;;;27.90;47.30;;;;;;4707216;30;20490;-79
2021/04/11 12:40:49;;;;;;;3.72;1.63;;;28.00;47.00;;;;;;4688477;30;20794;-80
2021/04/11 12:43:27;;;;;;;1.92;1.45;;;28.20;45.60;;;;;;4718646;30;20423;-79
2021/04/11 12:46:31;;;;;;;1.55;1.35;;;28.00;46.60;;;;;;4714800;30;20430;-78
2021/04/11 12:49:08;;;;;;;1.48;1.40;;;27.70;44.50;;;;;;4716480;30;20439;-79
2021/04/11 12:51:38;;;;;;;3.97;2.10;;;27.60;45.30;;;;;;4733602;30;20877;-78
2021/04/11 12:54:27;;;;;;;1.70;1.60;;;27.70;46.40;;;;;;4732974;30;20424;-79
2021/04/11 12:57:22;;;;;;;1.60;1.50;;;27.70;44.90;;;;;;4725337;30;20507;-80
2021/04/11 13:00:02;;;;;;;1.45;1.35;;;27.90;44.40;;;;;;4693254;30;20432;-78
2021/04/11 13:02:45;;;;;;;1.60;1.50;;;28.30;45.50;;;;;;4720722;30;20436;-77
2021/04/11 13:05:32;;;;;;;2.10;1.30;;;28.30;43.20;;;;;;4746655;30;20774;-76
2021/04/11 13:08:33;;;;;;;1.95;1.50;;;28.20;43.20;;;;;;4717340;30;21062;-78
2021/04/11 13:11:07;;;;;;;1.50;1.40;;;28.40;44.00;;;;;;4725191;30;20498;-79
2021/04/11 13:13:45;;;;;;;4.13;1.42;;;28.40;45.00;;;;;;4722492;30;20709;-77
2021/04/11 13:16:23;;;;;;;1.45;1.35;;;28.70;43.30;;;;;;4709129;30;20456;-78
2021/04/11 13:19:08;;;;;;;2.58;1.60;;;28.50;42.70;;;;;;4719628;30;20513;-78
2021/04/11 13:21:49;;;;;;;2.65;1.50;;;28.30;43.40;;;;;;4708746;30;20989;-77
2021/04/11 13:24:27;;;;;;;2.05;1.33;;;28.80;42.40;;;;;;4749131;30;20456;-77
2021/04/11 13:27:33;;;;;;;1.25;1.17;;;29.40;42.00;;;;;;4704470;30;20483;-78
2021/04/11 13:30:15;;;;;;;1.55;1.30;;;29.30;42.90;;;;;;4712374;30;20425;-77
2021/04/11 13:33:01;;;;;;;1.92;1.73;;;29.00;41.40;;;;;;4730506;30;20426;-78
2021/04/11 13:35:36;;;;;;;1.77;1.52;;;28.60;40.60;;;;;;4725802;30;20463;-77
2021/04/11 13:38:17;;;;;;;2.47;1.40;;;28.20;41.30;;;;;;4728531;30;20431;-78
2021/04/11 13:40:42;;;;;;;1.45;1.35;;;27.90;40.40;;;;;;4710866;30;20416;-78
2021/04/11 13:43:26;;;;;;;1.55;1.30;;;27.90;42.50;;;;;;4706063;30;20980;-79
2021/04/11 13:45:52;;;;;;;1.13;1.10;;;27.60;44.50;;;;;;4740947;30;20422;-78